Time,TemperatureF,DewpointF,PressureIn,WindDirection,WindDirectionDegrees,WindSpeedMPH,WindSpeedGustMPH,Humidity,HourlyPrecipIn,Conditions,Clouds,dailyrainin,SoftwareType,DateUTC
2013-06-27 00:00:00,65.8,65.8,29.91,WSW,248,0.0,0.0,100,0.00,,,0.04,VWS V14.01,2013-06-27 04:00:00,
2013-06-27 00:01:00,66.5,66.5,30.03,SSW,202,0.0,0.0,100,0.00,,,0.00,VWS V14.01,2013-06-27 04:01:00,
2013-06-27 00:06:00,66.7,66.7,30.03,SSW,202,0.0,0.0,100,0.00,,,0.00,VWS V14.01,2013-06-27 04:06:00,
2013-06-27 00:11:00,66.7,66.7,30.03,SSE,158,0.0,0.0,100,0.00,,,0.00,VWS V14.01,2013-06-27 04:11:00,
2013-06-27 00:15:00,66.7,66.7,30.03,SSE,158,0.0,0.0,100,0.00,,,0.00,VWS V14.01,2013-06-27 04:15:00,
2013-06-27 00:16:00,66.5,66.5,30.03,SSE,158,0.0,0.0,100,0.00,,,0.00,VWS V14.01,2013-06-27 04:16:00,
2013-06-27 00:21:00,66.5,66.5,30.03,SSE,158,0.0,0.0,100,0.00,,,0.00,VWS V14.01,2013-06-27 04:21:00,
2013-06-27 00:26:00,66.3,66.3,30.06,SSE,158,0.0,0.0,100,0.00,,,0.00,VWS V14.01,2013-06-27 04:26:00,
2013-06-27 00:30:00,66.3,66.3,30.06,SSE,158,0.0,0.0,100,0.00,,,0.00,VWS V14.01,2013-06-27 04:30:00,
2013-06-27 00:31:00,66.3,66.3,30.06,SSE,158,0.0,0.0,100,0.00,,,0.00,VWS V14.01,2013-06-27 04:31:00,
2013-06-27 00:36:00,66.7,66.7,30.06,SSW,202,0.0,0.0,100,0.00,,,0.00,VWS V14.01,2013-06-27 04:36:00,
2013-06-27 00:41:00,67.0,67.0,30.06,SSW,202,0.0,0.0,100,0.00,,,0.00,VWS V14.01,2013-06-27 04:41:00,
2013-06-27 00:45:00,67.0,67.0,30.06,SSE,158,0.0,0.0,100,0.00,,,0.00,VWS V14.01,2013-06-27 04:45:00,
2013-06-27 00:46:00,66.8,66.9,30.06,WSW,248,0.0,0.0,100,0.00,,,0.00,VWS V14.01,2013-06-27 04:46:00,
2013-06-27 00:51:00,67.0,67.0,30.06,WSW,248,0.0,0.0,100,0.00,,,0.00,VWS V14.01,2013-06-27 04:51:00,
2013-06-27 00:56:00,67.0,67.0,30.03,SE,135,0.0,0.0,100,0.00,,,0.00,VWS V14.01,2013-06-27 04:56:00,
2013-06-27 01:00:00,67.0,67.0,30.03,SSE,158,0.0,0.0,100,0.00,,,0.00,VWS V14.01,2013-06-27 05:00:00,
2013-06-27 01:01:00,67.0,67.0,30.03,SW,225,0.0,0.0,100,0.00,,,0.00,VWS V14.01,2013-06-27 05:01:00,
2013-06-27 01:06:00,66.8,66.9,30.03,SW,225,0.0,0.0,100,0.00,,,0.00,VWS V14.01,2013-06-27 05:06:00,
2013-06-27 01:11:00,66.8,66.9,30.03,West,270,0.0,0.0,100,0.00,,,0.00,VWS V14.01,2013-06-27 05:11:00,
2013-06-27 01:15:00,66.8,66.9,30.03,West,270,0.0,0.0,100,0.00,,,0.00,VWS V14.01,2013-06-27 05:15:00,
2013-06-27 01:16:00,67.0,67.0,30.03,WNW,292,0.0,0.0,100,0.00,,,0.00,VWS V14.01,2013-06-27 05:16:00,
2013-06-27 01:21:00,67.4,67.4,30.03,West,270,0.0,0.0,100,0.00,,,0.00,VWS V14.01,2013-06-27 05:21:00,
2013-06-27 01:26:00,67.6,67.6,30.03,NW,315,0.0,0.0,100,0.00,,,0.00,VWS V14.01,2013-06-27 05:26:00,
2013-06-27 01:30:00,67.6,67.6,30.03,NW,315,0.0,0.0,100,0.00,,,0.00,VWS V14.01,2013-06-27 05:30:00,
2013-06-27 01:31:00,67.6,67.6,30.03,NW,315,0.0,0.0,100,0.00,,,0.00,VWS V14.01,2013-06-27 05:31:00,
2013-06-27 01:36:00,67.4,67.4,30.03,West,270,0.0,0.0,100,0.00,,,0.00,VWS V14.01,2013-06-27 05:36:00,
2013-06-27 01:41:00,67.4,67.4,30.03,WSW,248,0.0,0.0,100,0.00,,,0.00,VWS V14.01,2013-06-27 05:41:00,
2013-06-27 01:45:00,67.4,67.4,30.03,WSW,248,0.0,0.0,100,0.00,,,0.00,VWS V14.01,2013-06-27 05:45:00,
2013-06-27 01:46:00,67.2,67.2,30.03,WSW,248,0.0,0.0,100,0.00,,,0.00,VWS V14.01,2013-06-27 05:46:00,
2013-06-27 01:51:00,67.2,67.2,30.03,West,270,0.0,0.0,100,0.00,,,0.00,VWS V14.01,2013-06-27 05:51:00,
2013-06-27 01:56:00,67.4,67.4,30.03,West,270,0.0,0.0,100,0.00,,,0.00,VWS V14.01,2013-06-27 05:56:00,
2013-06-27 02:01:00,67.4,67.4,30.03,West,270,0.0,0.0,100,0.00,,,0.00,VWS V14.01,2013-06-27 06:01:00,
2013-06-27 02:06:00,67.0,67.0,30.03,South,180,0.0,0.0,100,0.00,,,0.00,VWS V14.01,2013-06-27 06:06:00,
2013-06-27 02:11:00,67.2,67.2,30.03,SSE,158,0.0,0.0,100,0.00,,,0.00,VWS V14.01,2013-06-27 06:11:00,
2013-06-27 02:15:00,67.2,67.2,30.03,SSE,158,0.0,0.0,100,0.00,,,0.00,VWS V14.01,2013-06-27 06:15:00,
2013-06-27 02:16:00,67.2,67.2,30.03,SSE,158,0.0,0.0,100,0.00,,,0.00,VWS V14.01,2013-06-27 06:16:00,
2013-06-27 02:21:00,67.0,67.0,30.03,SSE,158,0.0,0.0,100,0.00,,,0.00,VWS V14.01,2013-06-27 06:21:00,
2013-06-27 02:26:00,67.0,67.0,30.03,SSE,158,0.0,0.0,100,0.00,,,0.00,VWS V14.01,2013-06-27 06:26:00,
2013-06-27 02:30:00,67.0,67.0,30.03,SSE,158,0.0,0.0,100,0.00,,,0.00,VWS V14.01,2013-06-27 06:30:00,
2013-06-27 02:31:00,67.0,67.0,30.03,SSE,158,0.0,0.0,100,0.00,,,0.00,VWS V14.01,2013-06-27 06:31:00,
2013-06-27 02:36:00,66.8,66.9,30.03,SSE,158,0.0,0.0,100,0.00,,,0.00,VWS V14.01,2013-06-27 06:36:00,
2013-06-27 02:41:00,66.8,66.9,30.03,SSE,158,0.0,0.0,100,0.00,,,0.00,VWS V14.01,2013-06-27 06:41:00,
2013-06-27 02:45:00,66.7,66.7,30.03,SSE,158,0.0,0.0,100,0.00,,,0.00,VWS V14.01,2013-06-27 06:45:00,
2013-06-27 02:46:00,66.8,66.9,30.03,SSE,158,0.0,0.0,100,0.00,,,0.00,VWS V14.01,2013-06-27 06:46:00,
2013-06-27 02:51:00,66.5,66.5,30.03,SSE,158,0.0,0.0,100,0.00,,,0.00,VWS V14.01,2013-06-27 06:51:00,
2013-06-27 02:56:00,66.7,66.7,30.03,SSE,158,0.0,0.0,100,0.00,,,0.00,VWS V14.01,2013-06-27 06:56:00,
2013-06-27 03:00:00,66.7,66.7,30.03,SSE,158,0.0,0.0,100,0.00,,,0.00,VWS V14.01,2013-06-27 07:00:00,
2013-06-27 03:01:00,66.7,66.7,30.03,SSE,158,0.0,0.0,100,0.00,,,0.00,VWS V14.01,2013-06-27 07:01:00,
2013-06-27 03:06:00,66.7,66.7,30.03,SSE,158,0.0,0.0,100,0.00,,,0.00,VWS V14.01,2013-06-27 07:06:00,
2013-06-27 03:11:00,66.5,66.5,30.00,NE,45,0.0,0.0,100,0.00,,,0.00,VWS V14.01,2013-06-27 07:11:00,
2013-06-27 03:15:00,66.5,66.5,30.00,NE,45,0.0,0.0,100,0.00,,,0.00,VWS V14.01,2013-06-27 07:15:00,
2013-06-27 03:16:00,66.5,66.5,30.00,NE,45,0.0,0.0,100,0.00,,,0.00,VWS V14.01,2013-06-27 07:16:00,
2013-06-27 03:21:00,66.7,66.7,30.00,WSW,248,0.0,0.0,100,0.00,,,0.00,VWS V14.01,2013-06-27 07:21:00,
2013-06-27 03:26:00,66.7,66.7,29.97,WSW,248,0.0,0.0,100,0.00,,,0.00,VWS V14.01,2013-06-27 07:26:00,
2013-06-27 03:30:00,66.5,66.5,29.97,NNW,338,0.0,0.0,100,0.00,,,0.00,VWS V14.01,2013-06-27 07:30:00,
2013-06-27 03:31:00,66.5,66.5,29.97,NNW,338,0.0,0.0,100,0.00,,,0.00,VWS V14.01,2013-06-27 07:31:00,
2013-06-27 03:36:00,66.8,66.9,29.97,WNW,292,0.0,0.0,100,0.00,,,0.00,VWS V14.01,2013-06-27 07:36:00,
2013-06-27 03:41:00,66.8,66.9,29.97,WNW,292,0.0,0.0,100,0.00,,,0.00,VWS V14.01,2013-06-27 07:41:00,
2013-06-27 03:46:00,67.8,67.8,29.97,South,180,0.0,0.0,100,0.00,,,0.00,VWS V14.01,2013-06-27 07:46:00,
2013-06-27 03:51:00,67.9,67.9,29.97,SE,135,0.0,0.0,100,0.00,,,0.00,VWS V14.01,2013-06-27 07:51:00,
2013-06-27 03:56:00,68.3,68.3,29.94,NNW,338,0.0,0.0,100,0.00,,,0.00,VWS V14.01,2013-06-27 07:56:00,
2013-06-27 04:00:00,68.3,68.3,29.94,WNW,292,0.0,0.0,100,0.00,,,0.00,VWS V14.01,2013-06-27 08:00:00,
2013-06-27 04:01:00,68.3,68.3,29.94,SE,135,0.0,0.0,100,0.00,,,0.00,VWS V14.01,2013-06-27 08:01:00,
2013-06-27 04:06:00,68.1,68.1,29.94,WSW,248,0.0,0.0,100,0.00,,,0.00,VWS V14.01,2013-06-27 08:06:00,
2013-06-27 04:11:00,69.2,69.2,29.97,ESE,112,0.0,0.0,100,0.00,,,0.00,VWS V14.01,2013-06-27 08:11:00,
2013-06-27 04:15:00,69.2,69.2,29.97,SE,135,0.0,0.0,100,0.00,,,0.00,VWS V14.01,2013-06-27 08:15:00,
2013-06-27 04:16:00,69.2,69.2,29.97,SE,135,0.0,0.0,100,0.00,,,0.00,VWS V14.01,2013-06-27 08:16:00,
2013-06-27 04:21:00,69.7,69.7,29.97,SE,135,0.0,0.0,100,0.00,,,0.00,VWS V14.01,2013-06-27 08:21:00,
2013-06-27 04:26:00,69.9,69.9,29.97,SSE,158,0.0,0.0,100,0.00,,,0.00,VWS V14.01,2013-06-27 08:26:00,
2013-06-27 04:30:00,69.9,69.9,29.97,WSW,248,0.0,0.0,100,0.00,,,0.00,VWS V14.01,2013-06-27 08:30:00,
2013-06-27 04:31:00,69.9,69.9,29.97,NW,315,0.0,0.0,100,0.00,,,0.00,VWS V14.01,2013-06-27 08:31:00,
2013-06-27 04:36:00,69.9,69.9,29.97,NNW,338,0.0,0.0,100,0.00,,,0.00,VWS V14.01,2013-06-27 08:36:00,
2013-06-27 04:41:00,70.1,70.1,29.97,North,0,0.0,0.0,100,0.00,,,0.00,VWS V14.01,2013-06-27 08:41:00,
2013-06-27 04:46:00,70.3,68.0,29.97,SSE,158,0.0,0.0,92,0.00,,,0.00,VWS V14.01,2013-06-27 08:46:00,
2013-06-27 04:51:00,71.0,66.1,29.97,ENE,68,0.0,0.0,84,0.00,,,0.00,VWS V14.01,2013-06-27 08:51:00,
2013-06-27 04:56:00,71.3,64.7,29.97,NNW,338,0.0,0.0,80,0.00,,,0.00,VWS V14.01,2013-06-27 08:56:00,
2013-06-27 05:00:00,71.3,64.0,29.97,SSE,158,2.2,2.2,78,0.00,,,0.00,VWS V14.01,2013-06-27 09:00:00,
2013-06-27 05:01:00,71.5,63.8,29.97,SE,135,2.5,2.5,76,0.00,,,0.00,VWS V14.01,2013-06-27 09:01:00,
2013-06-27 05:06:00,72.1,63.2,29.97,NE,45,2.0,2.0,74,0.00,,,0.00,VWS V14.01,2013-06-27 09:06:00,
2013-06-27 05:11:00,71.9,63.0,29.97,SSE,158,0.0,0.0,74,0.00,,,0.00,VWS V14.01,2013-06-27 09:11:00,
2013-06-27 05:16:00,71.9,62.2,29.97,NE,45,0.0,0.0,72,0.00,,,0.00,VWS V14.01,2013-06-27 09:16:00,
2013-06-27 05:21:00,72.2,62.1,29.97,SSW,202,0.0,0.0,70,0.00,,,0.00,VWS V14.01,2013-06-27 09:21:00,
2013-06-27 05:26:00,72.1,62.0,29.97,SE,135,4.0,4.0,70,0.00,,,0.00,VWS V14.01,2013-06-27 09:26:00,
2013-06-27 05:30:00,72.1,61.6,29.97,ESE,112,0.9,0.9,70,0.00,,,0.00,VWS V14.01,2013-06-27 09:30:00,
2013-06-27 05:31:00,72.1,61.6,29.97,WNW,292,0.0,0.0,70,0.00,,,0.00,VWS V14.01,2013-06-27 09:31:00,
2013-06-27 05:36:00,72.4,61.1,29.97,SE,135,4.7,4.7,68,0.00,,,0.00,VWS V14.01,2013-06-27 09:36:00,
2013-06-27 05:41:00,72.6,60.0,29.97,South,180,2.0,2.0,64,0.00,,,0.00,VWS V14.01,2013-06-27 09:41:00,
2013-06-27 05:45:00,72.6,60.4,29.97,SSE,158,2.7,2.7,66,0.00,,,0.00,VWS V14.01,2013-06-27 09:45:00,
2013-06-27 05:46:00,72.6,60.0,29.97,ENE,68,2.7,2.7,64,0.00,,,0.00,VWS V14.01,2013-06-27 09:46:00,
2013-06-27 05:51:00,72.6,60.0,29.97,ESE,112,0.0,0.0,64,0.00,,,0.00,VWS V14.01,2013-06-27 09:51:00,
2013-06-27 05:56:00,72.4,60.7,29.94,East,90,0.0,0.0,66,0.00,,,0.00,VWS V14.01,2013-06-27 09:56:00,
2013-06-27 06:00:00,72.1,60.3,29.94,NE,45,2.2,2.2,66,0.00,,,0.00,VWS V14.01,2013-06-27 10:00:00,
2013-06-27 06:01:00,72.1,60.3,29.94,NW,315,0.0,0.0,66,0.00,,,0.00,VWS V14.01,2013-06-27 10:01:00,
2013-06-27 06:06:00,71.9,60.1,29.94,NE,45,0.0,0.0,66,0.00,,,0.00,VWS V14.01,2013-06-27 10:06:00,
2013-06-27 06:11:00,71.9,60.6,29.97,NNE,22,0.0,0.0,68,0.00,,,0.00,VWS V14.01,2013-06-27 10:11:00,
2013-06-27 06:15:00,71.7,60.8,29.97,NNE,22,0.0,0.0,68,0.00,,,0.00,VWS V14.01,2013-06-27 10:15:00,
2013-06-27 06:16:00,71.5,61.0,29.97,NW,315,0.0,0.0,70,0.00,,,0.00,VWS V14.01,2013-06-27 10:16:00,
2013-06-27 06:21:00,71.3,60.9,29.97,NNW,338,0.0,0.0,70,0.00,,,0.00,VWS V14.01,2013-06-27 10:21:00,
2013-06-27 06:26:00,70.8,61.9,29.94,South,180,0.0,0.0,74,0.00,,,0.00,VWS V14.01,2013-06-27 10:26:00,
2013-06-27 06:30:00,70.6,61.8,29.94,South,180,0.0,0.0,74,0.00,,,0.00,VWS V14.01,2013-06-27 10:30:00,
2013-06-27 06:31:00,70.6,62.1,29.94,South,180,0.0,0.0,74,0.00,,,0.00,VWS V14.01,2013-06-27 10:31:00,
2013-06-27 06:36:00,70.4,63.1,29.94,NW,315,0.0,0.0,78,0.00,,,0.00,VWS V14.01,2013-06-27 10:36:00,
2013-06-27 06:41:00,70.3,63.6,29.97,SW,225,0.0,0.0,80,0.00,,,0.00,VWS V14.01,2013-06-27 10:41:00,
2013-06-27 06:45:00,70.3,64.0,29.97,SW,225,0.0,0.0,80,0.00,,,0.00,VWS V14.01,2013-06-27 10:45:00,
2013-06-27 06:46:00,70.1,64.2,29.97,SW,225,0.0,0.0,82,0.00,,,0.00,VWS V14.01,2013-06-27 10:46:00,
2013-06-27 06:51:00,69.9,64.0,29.97,South,180,0.0,0.0,82,0.00,,,0.00,VWS V14.01,2013-06-27 10:51:00,
2013-06-27 06:56:00,69.7,64.5,29.97,SSW,202,0.0,0.0,84,0.00,,,0.00,VWS V14.01,2013-06-27 10:56:00,
2013-06-27 07:00:00,69.7,64.5,29.97,SSW,202,0.0,0.0,84,0.00,,,0.00,VWS V14.01,2013-06-27 11:00:00,
2013-06-27 07:01:00,69.7,64.5,29.97,South,180,0.0,0.0,84,0.00,,,0.00,VWS V14.01,2013-06-27 11:01:00,
2013-06-27 07:06:00,69.7,65.2,29.97,South,180,0.0,0.0,86,0.00,,,0.00,VWS V14.01,2013-06-27 11:06:00,
2013-06-27 07:11:00,69.6,65.3,29.97,South,180,0.0,0.0,86,0.00,,,0.00,VWS V14.01,2013-06-27 11:11:00,
2013-06-27 07:15:00,69.6,65.3,29.97,South,180,0.0,0.0,86,0.00,,,0.00,VWS V14.01,2013-06-27 11:15:00,
2013-06-27 07:16:00,69.7,66.2,29.97,NW,315,0.0,0.0,88,0.00,,,0.00,VWS V14.01,2013-06-27 11:16:00,
2013-06-27 07:21:00,69.7,66.2,29.97,West,270,0.0,0.0,88,0.00,,,0.00,VWS V14.01,2013-06-27 11:21:00,
2013-06-27 07:26:00,69.7,66.2,29.97,South,180,0.0,0.0,88,0.00,,,0.00,VWS V14.01,2013-06-27 11:26:00,
2013-06-27 07:30:00,69.9,66.7,29.97,South,180,0.0,0.0,90,0.00,,,0.00,VWS V14.01,2013-06-27 11:30:00,
2013-06-27 07:31:00,69.9,66.7,29.97,WSW,248,0.0,0.0,90,0.00,,,0.00,VWS V14.01,2013-06-27 11:31:00,
2013-06-27 07:36:00,69.9,67.0,29.97,WSW,248,0.0,0.0,90,0.00,,,0.00,VWS V14.01,2013-06-27 11:36:00,
2013-06-27 07:41:00,69.9,67.3,29.94,South,180,0.0,0.0,92,0.00,,,0.00,VWS V14.01,2013-06-27 11:41:00,
2013-06-27 07:45:00,70.1,67.2,29.94,SSE,158,0.0,0.0,90,0.00,,,0.00,VWS V14.01,2013-06-27 11:45:00,
2013-06-27 07:46:00,70.1,66.9,29.94,SW,225,0.0,0.0,90,0.00,,,0.00,VWS V14.01,2013-06-27 11:46:00,
2013-06-27 07:51:00,70.3,67.0,29.94,NNW,338,0.0,0.0,90,0.00,,,0.00,VWS V14.01,2013-06-27 11:51:00,
2013-06-27 07:56:00,70.4,65.2,29.97,SSE,158,0.0,0.0,84,0.00,,,0.00,VWS V14.01,2013-06-27 11:56:00,
2013-06-27 08:00:00,70.8,65.2,29.97,East,90,0.0,0.0,82,0.00,,,0.00,VWS V14.01,2013-06-27 12:00:00,
2013-06-27 08:01:00,71.0,63.6,29.97,SE,135,0.0,0.0,78,0.00,,,0.00,VWS V14.01,2013-06-27 12:01:00,
2013-06-27 08:06:00,71.0,63.6,29.97,SE,135,1.6,1.6,78,0.00,,,0.00,VWS V14.01,2013-06-27 12:06:00,
2013-06-27 08:11:00,72.2,60.5,29.97,SE,135,0.0,0.0,66,0.00,,,0.00,VWS V14.01,2013-06-27 12:11:00,
2013-06-27 08:15:00,72.1,61.2,29.97,North,0,0.0,0.0,68,0.00,,,0.00,VWS V14.01,2013-06-27 12:15:00,
2013-06-27 08:16:00,72.1,61.2,29.97,North,0,0.0,0.0,68,0.00,,,0.00,VWS V14.01,2013-06-27 12:16:00,
2013-06-27 08:21:00,72.2,61.3,29.97,NNW,338,0.0,0.0,68,0.00,,,0.00,VWS V14.01,2013-06-27 12:21:00,
2013-06-27 08:26:00,72.1,60.7,29.97,SSW,202,0.0,0.0,68,0.00,,,0.00,VWS V14.01,2013-06-27 12:26:00,
2013-06-27 08:30:00,72.2,62.5,29.97,SSW,202,0.0,0.0,72,0.00,,,0.00,VWS V14.01,2013-06-27 12:30:00,
2013-06-27 08:31:00,72.1,62.4,29.97,SSW,202,0.0,0.0,72,0.00,,,0.00,VWS V14.01,2013-06-27 12:31:00,
2013-06-27 08:36:00,71.9,61.4,29.97,SE,135,0.0,0.0,70,0.00,,,0.00,VWS V14.01,2013-06-27 12:36:00,
2013-06-27 08:41:00,72.2,61.7,29.94,SSE,158,0.0,0.0,70,0.00,,,0.00,VWS V14.01,2013-06-27 12:41:00,
2013-06-27 08:45:00,72.2,61.3,29.94,SSE,158,0.0,0.0,68,0.00,,,0.00,VWS V14.01,2013-06-27 12:45:00,
2013-06-27 08:46:00,72.4,58.9,29.94,SSE,158,2.5,2.5,62,0.00,,,0.00,VWS V14.01,2013-06-27 12:46:00,
2013-06-27 08:51:00,73.0,59.9,29.94,SE,135,2.5,2.5,64,0.00,,,0.00,VWS V14.01,2013-06-27 12:51:00,
2013-06-27 08:56:00,73.2,60.0,29.97,WNW,292,0.0,0.0,64,0.00,,,0.00,VWS V14.01,2013-06-27 12:56:00,
2013-06-27 09:00:00,73.3,59.3,29.97,ESE,112,0.0,0.0,62,0.00,,,0.00,VWS V14.01,2013-06-27 13:00:00,
2013-06-27 09:01:00,73.5,59.5,29.97,NE,45,0.9,0.9,62,0.00,,,0.00,VWS V14.01,2013-06-27 13:01:00,
2013-06-27 09:06:00,73.7,60.5,29.97,East,90,0.0,0.0,64,0.00,,,0.00,VWS V14.01,2013-06-27 13:06:00,
2013-06-27 09:11:00,73.7,60.1,29.97,SSE,158,0.0,0.0,62,0.00,,,0.00,VWS V14.01,2013-06-27 13:11:00,
2013-06-27 09:15:00,73.9,61.2,29.97,SSE,158,0.0,0.0,64,0.00,,,0.00,VWS V14.01,2013-06-27 13:15:00,
2013-06-27 09:16:00,73.9,59.8,29.97,East,90,0.0,0.0,62,0.00,,,0.00,VWS V14.01,2013-06-27 13:16:00,
2013-06-27 09:21:00,74.1,60.0,29.97,NNE,22,0.0,0.0,62,0.00,,,0.00,VWS V14.01,2013-06-27 13:21:00,
2013-06-27 09:26:00,73.9,59.8,29.97,WNW,292,0.0,0.0,62,0.00,,,0.00,VWS V14.01,2013-06-27 13:26:00,
2013-06-27 09:30:00,73.7,59.7,29.97,East,90,0.0,0.0,62,0.00,,,0.00,VWS V14.01,2013-06-27 13:30:00,
2013-06-27 09:31:00,73.9,60.3,29.97,WSW,248,1.1,1.1,62,0.00,,,0.00,VWS V14.01,2013-06-27 13:31:00,
2013-06-27 09:36:00,73.7,60.5,29.97,NNE,22,1.3,1.3,64,0.00,,,0.00,VWS V14.01,2013-06-27 13:36:00,
2013-06-27 09:41:00,73.7,59.2,29.94,ENE,68,4.0,4.0,60,0.00,,,0.00,VWS V14.01,2013-06-27 13:41:00,
2013-06-27 09:45:00,73.9,60.3,29.94,WSW,248,1.3,1.3,62,0.00,,,0.00,VWS V14.01,2013-06-27 13:45:00,
2013-06-27 09:46:00,73.9,60.7,29.94,NNW,338,2.0,2.0,64,0.00,,,0.00,VWS V14.01,2013-06-27 13:46:00,
2013-06-27 09:51:00,73.7,60.1,29.94,ESE,112,0.0,0.0,62,0.00,,,0.00,VWS V14.01,2013-06-27 13:51:00,
2013-06-27 09:56:00,73.7,59.7,29.97,North,0,0.0,0.0,62,0.00,,,0.00,VWS V14.01,2013-06-27 13:56:00,
2013-06-27 10:00:00,73.9,61.6,29.97,NNW,338,0.0,0.0,66,0.00,,,0.00,VWS V14.01,2013-06-27 14:00:00,
2013-06-27 10:01:00,73.9,60.7,29.97,WSW,248,0.0,0.0,64,0.00,,,0.00,VWS V14.01,2013-06-27 14:01:00,
2013-06-27 10:06:00,73.9,59.4,29.97,East,90,0.0,0.0,60,0.00,,,0.00,VWS V14.01,2013-06-27 14:06:00,
2013-06-27 10:11:00,73.9,60.7,29.97,WNW,292,0.0,0.0,64,0.00,,,0.00,VWS V14.01,2013-06-27 14:11:00,
2013-06-27 10:16:00,73.9,60.7,29.97,NE,45,0.0,0.0,64,0.00,,,0.00,VWS V14.01,2013-06-27 14:16:00,
2013-06-27 10:21:00,73.9,61.2,29.97,West,270,0.0,0.0,64,0.00,,,0.00,VWS V14.01,2013-06-27 14:21:00,
2013-06-27 10:26:00,74.1,60.0,29.97,East,90,0.0,0.0,62,0.00,,,0.00,VWS V14.01,2013-06-27 14:26:00,
2013-06-27 10:30:00,74.2,60.6,29.97,SE,135,0.0,0.0,62,0.00,,,0.00,VWS V14.01,2013-06-27 14:30:00,
2013-06-27 10:31:00,74.4,60.3,29.97,SE,135,0.0,0.0,62,0.00,,,0.00,VWS V14.01,2013-06-27 14:31:00,
2013-06-27 10:36:00,75.5,59.9,29.97,SSE,158,3.1,3.1,58,0.00,,,0.00,VWS V14.01,2013-06-27 14:36:00,
2013-06-27 10:41:00,75.7,59.1,29.97,NNW,338,0.0,0.0,56,0.00,,,0.00,VWS V14.01,2013-06-27 14:41:00,
2013-06-27 10:45:00,76.0,61.9,29.97,ENE,68,1.1,1.1,62,0.00,,,0.00,VWS V14.01,2013-06-27 14:45:00,
2013-06-27 10:46:00,76.4,59.8,29.97,SSE,158,0.0,0.0,56,0.00,,,0.00,VWS V14.01,2013-06-27 14:46:00,
2013-06-27 10:51:00,77.1,60.0,29.97,WNW,292,0.0,0.0,56,0.00,,,0.00,VWS V14.01,2013-06-27 14:51:00,
2013-06-27 10:56:00,77.5,59.3,29.97,NNW,338,0.0,0.0,54,0.00,,,0.00,VWS V14.01,2013-06-27 14:56:00,
2013-06-27 11:00:00,77.3,59.6,29.97,SSW,202,1.6,1.6,54,0.00,,,0.00,VWS V14.01,2013-06-27 15:00:00,
2013-06-27 11:01:00,77.5,59.3,29.97,WNW,292,0.0,0.0,54,0.00,,,0.00,VWS V14.01,2013-06-27 15:01:00,
2013-06-27 11:06:00,77.1,58.9,29.97,NE,45,2.9,2.9,54,0.00,,,0.00,VWS V14.01,2013-06-27 15:06:00,
2013-06-27 11:11:00,76.8,58.1,29.97,SE,135,2.9,2.9,52,0.00,,,0.00,VWS V14.01,2013-06-27 15:11:00,
2013-06-27 11:15:00,76.6,57.9,29.97,SE,135,0.0,0.0,52,0.00,,,0.00,VWS V14.01,2013-06-27 15:15:00,
2013-06-27 11:16:00,76.8,59.1,29.97,SSE,158,0.0,0.0,54,0.00,,,0.00,VWS V14.01,2013-06-27 15:16:00,
2013-06-27 11:21:00,76.8,58.1,29.97,East,90,2.5,2.5,52,0.00,,,0.00,VWS V14.01,2013-06-27 15:21:00,
2013-06-27 11:26:00,76.8,58.6,29.97,NE,45,1.3,1.3,54,0.00,,,0.00,VWS V14.01,2013-06-27 15:26:00,
2013-06-27 11:30:00,76.6,58.4,29.97,NNE,22,0.0,0.0,54,0.00,,,0.00,VWS V14.01,2013-06-27 15:30:00,
2013-06-27 11:31:00,76.4,57.8,29.97,SSE,158,0.0,0.0,52,0.00,,,0.00,VWS V14.01,2013-06-27 15:31:00,
2013-06-27 11:36:00,76.0,60.0,29.97,WSW,248,0.0,0.0,58,0.00,,,0.00,VWS V14.01,2013-06-27 15:36:00,
2013-06-27 11:40:00,75.3,58.8,29.97,NNE,22,1.3,1.3,56,0.00,,,0.00,VWS V14.01,2013-06-27 15:40:00,
2013-06-27 11:45:00,74.9,60.4,29.97,SSW,202,0.0,0.0,60,0.00,,,0.00,VWS V14.01,2013-06-27 15:45:00,
2013-06-27 11:51:00,74.4,61.7,29.97,NW,315,1.1,1.1,64,0.00,,,0.00,VWS V14.01,2013-06-27 15:51:00,
2013-06-27 11:56:00,74.1,61.3,29.97,NW,315,0.0,0.0,64,0.00,,,0.00,VWS V14.01,2013-06-27 15:56:00,
2013-06-27 12:00:00,74.1,63.5,29.97,NW,315,0.0,0.0,70,0.00,,,0.00,VWS V14.01,2013-06-27 16:00:00,
2013-06-27 12:01:00,73.9,62.9,29.97,NNE,22,2.0,2.0,68,0.00,,,0.00,VWS V14.01,2013-06-27 16:01:00,
2013-06-27 12:06:00,73.3,63.6,29.97,SE,135,0.0,0.0,72,0.00,,,0.00,VWS V14.01,2013-06-27 16:06:00,
2013-06-27 12:11:00,73.0,62.0,29.97,South,180,1.3,1.3,68,0.00,,,0.00,VWS V14.01,2013-06-27 16:11:00,
2013-06-27 12:15:00,73.0,61.6,29.97,ESE,112,0.0,0.0,68,0.00,,,0.00,VWS V14.01,2013-06-27 16:15:00,
2013-06-27 12:16:00,73.2,63.0,29.97,North,0,0.0,0.0,70,0.00,,,0.00,VWS V14.01,2013-06-27 16:16:00,
2013-06-27 12:20:00,73.3,65.1,29.97,WNW,292,0.0,0.0,76,0.00,,,0.00,VWS V14.01,2013-06-27 16:20:00,
2013-06-27 12:25:00,73.5,61.7,29.97,SE,135,0.0,0.0,66,0.00,,,0.00,VWS V14.01,2013-06-27 16:25:00,
2013-06-27 12:30:00,73.9,62.0,29.97,SW,225,0.0,0.0,66,0.00,,,0.00,VWS V14.01,2013-06-27 16:30:00,
2013-06-27 12:36:00,74.2,63.2,29.97,SSE,158,0.0,0.0,68,0.00,,,0.00,VWS V14.01,2013-06-27 16:36:00,
2013-06-27 12:40:00,74.6,61.4,29.97,SSW,202,0.0,0.0,64,0.00,,,0.00,VWS V14.01,2013-06-27 16:40:00,
2013-06-27 12:45:00,75.1,61.5,29.97,NNE,22,1.1,1.1,62,0.00,,,0.00,VWS V14.01,2013-06-27 16:45:00,
2013-06-27 12:50:00,75.3,60.7,29.97,SSE,158,0.0,0.0,60,0.00,,,0.00,VWS V14.01,2013-06-27 16:50:00,
2013-06-27 12:55:00,75.8,59.8,29.97,NNE,22,3.8,3.8,58,0.00,,,0.00,VWS V14.01,2013-06-27 16:55:00,
2013-06-27 13:00:00,76.2,59.1,29.97,WSW,248,3.6,3.6,56,0.00,,,0.00,VWS V14.01,2013-06-27 17:00:00,
2013-06-27 13:05:00,76.8,60.6,29.97,North,0,3.1,3.1,58,0.00,,,0.00,VWS V14.01,2013-06-27 17:05:00,
2013-06-27 13:10:00,77.1,60.0,29.94,WNW,292,1.3,1.3,56,0.00,,,0.00,VWS V14.01,2013-06-27 17:10:00,
2013-06-27 13:15:00,77.3,59.1,29.94,SE,135,1.3,1.3,54,0.00,,,0.00,VWS V14.01,2013-06-27 17:15:00,
2013-06-27 13:20:00,77.7,58.9,29.94,West,270,0.0,0.0,52,0.00,,,0.00,VWS V14.01,2013-06-27 17:20:00,
2013-06-27 13:25:00,77.7,59.4,29.94,WNW,292,1.6,1.6,54,0.00,,,0.00,VWS V14.01,2013-06-27 17:25:00,
2013-06-27 13:30:00,77.8,59.1,29.94,NE,45,1.3,1.3,52,0.00,,,0.00,VWS V14.01,2013-06-27 17:30:00,
2013-06-27 13:35:00,77.7,58.9,29.94,NW,315,0.9,0.9,52,0.00,,,0.00,VWS V14.01,2013-06-27 17:35:00,
2013-06-27 13:40:00,77.8,60.1,29.94,SSE,158,2.7,2.7,54,0.00,,,0.00,VWS V14.01,2013-06-27 17:40:00,
2013-06-27 13:45:00,77.5,60.3,29.94,South,180,0.0,0.0,56,0.00,,,0.00,VWS V14.01,2013-06-27 17:45:00,
2013-06-27 13:50:00,77.3,60.1,29.94,WSW,248,0.0,0.0,56,0.00,,,0.00,VWS V14.01,2013-06-27 17:50:00,
2013-06-27 13:55:00,77.3,59.1,29.94,SE,135,0.0,0.0,54,0.00,,,0.00,VWS V14.01,2013-06-27 17:55:00,
2013-06-27 14:00:00,77.7,60.5,29.94,WSW,248,0.0,0.0,56,0.00,,,0.00,VWS V14.01,2013-06-27 18:00:00,
2013-06-27 14:05:00,77.8,61.6,29.94,NNW,338,0.0,0.0,58,0.00,,,0.00,VWS V14.01,2013-06-27 18:05:00,
2013-06-27 14:10:00,77.8,59.1,29.94,NNW,338,2.7,2.7,52,0.00,,,0.00,VWS V14.01,2013-06-27 18:10:00,
2013-06-27 14:15:00,78.4,59.6,29.94,NW,315,0.0,0.0,52,0.00,,,0.00,VWS V14.01,2013-06-27 18:15:00,
2013-06-27 14:20:00,78.7,61.0,29.94,WSW,248,0.0,0.0,54,0.00,,,0.00,VWS V14.01,2013-06-27 18:20:00,
2013-06-27 14:25:00,78.9,60.1,29.94,WNW,292,1.1,1.1,52,0.00,,,0.00,VWS V14.01,2013-06-27 18:25:00,
2013-06-27 14:30:00,78.9,59.5,29.94,WSW,248,0.0,0.0,52,0.00,,,0.00,VWS V14.01,2013-06-27 18:30:00,
2013-06-27 14:35:00,79.4,60.0,29.94,SE,135,1.3,1.3,52,0.00,,,0.00,VWS V14.01,2013-06-27 18:35:00,
2013-06-27 14:40:00,80.2,60.7,29.91,SSW,202,0.0,0.0,52,0.00,,,0.00,VWS V14.01,2013-06-27 18:40:00,
2013-06-27 14:45:00,80.3,60.9,29.91,SSE,158,0.0,0.0,52,0.00,,,0.00,VWS V14.01,2013-06-27 18:45:00,
2013-06-27 14:50:00,80.3,60.3,29.91,WNW,292,0.0,0.0,50,0.00,,,0.00,VWS V14.01,2013-06-27 18:50:00,
2013-06-27 14:55:00,81.1,61.0,29.91,NW,315,1.3,1.3,50,0.00,,,0.00,VWS V14.01,2013-06-27 18:55:00,
2013-06-27 15:00:00,81.6,61.5,29.91,WNW,292,0.0,0.0,50,0.00,,,0.00,VWS V14.01,2013-06-27 19:00:00,
2013-06-27 15:05:00,81.6,60.9,29.91,NNW,338,0.0,0.0,50,0.00,,,0.00,VWS V14.01,2013-06-27 19:05:00,
2013-06-27 15:10:00,81.8,61.6,29.91,NW,315,2.5,2.5,50,0.00,,,0.00,VWS V14.01,2013-06-27 19:10:00,
2013-06-27 15:15:00,81.6,61.5,29.91,WNW,292,0.0,0.0,50,0.00,,,0.00,VWS V14.01,2013-06-27 19:15:00,
2013-06-27 15:20:00,81.2,58.8,29.91,WNW,292,4.9,4.9,46,0.00,,,0.00,VWS V14.01,2013-06-27 19:20:00,
2013-06-27 15:25:00,81.2,61.1,29.91,NW,315,1.1,1.1,50,0.00,,,0.00,VWS V14.01,2013-06-27 19:25:00,
2013-06-27 15:30:00,81.1,61.0,29.91,NNW,338,1.3,1.3,50,0.00,,,0.00,VWS V14.01,2013-06-27 19:30:00,
2013-06-27 15:35:00,80.7,61.2,29.91,NNE,22,0.0,0.0,52,0.00,,,0.00,VWS V14.01,2013-06-27 19:35:00,
2013-06-27 15:40:00,80.2,60.2,29.91,North,0,0.0,0.0,50,0.00,,,0.00,VWS V14.01,2013-06-27 19:40:00,
2013-06-27 15:45:00,80.2,60.2,29.91,NW,315,0.0,0.0,50,0.00,,,0.00,VWS V14.01,2013-06-27 19:45:00,
2013-06-27 15:50:00,81.1,61.5,29.91,SSE,158,0.0,0.0,52,0.00,,,0.00,VWS V14.01,2013-06-27 19:50:00,
2013-06-27 15:55:00,81.1,61.0,29.91,North,0,1.3,1.3,50,0.00,,,0.00,VWS V14.01,2013-06-27 19:55:00,
2013-06-27 16:00:00,80.9,60.8,29.91,NNW,338,0.0,0.0,50,0.00,,,0.00,VWS V14.01,2013-06-27 20:00:00,
2013-06-27 16:05:00,80.9,60.8,29.91,WNW,292,0.0,0.0,50,0.00,,,0.00,VWS V14.01,2013-06-27 20:05:00,
2013-06-27 16:10:00,81.2,60.6,29.88,NNE,22,0.0,0.0,50,0.00,,,0.00,VWS V14.01,2013-06-27 20:10:00,
2013-06-27 16:15:00,81.2,60.0,29.88,NNW,338,2.5,2.5,48,0.00,,,0.00,VWS V14.01,2013-06-27 20:15:00,
2013-06-27 16:20:00,80.7,60.1,29.88,NNW,338,1.1,1.1,50,0.00,,,0.00,VWS V14.01,2013-06-27 20:20:00,
2013-06-27 16:25:00,81.4,61.3,29.91,NW,315,0.0,0.0,50,0.00,,,0.00,VWS V14.01,2013-06-27 20:25:00,
2013-06-27 16:30:00,81.4,60.2,29.91,North,0,4.0,4.0,48,0.00,,,0.00,VWS V14.01,2013-06-27 20:30:00,
2013-06-27 16:31:00,81.8,61.1,29.91,NE,45,1.1,1.1,50,0.00,,,0.00,VWS V14.01,2013-06-27 20:31:00,
2013-06-27 16:36:00,81.8,60.5,29.91,South,180,2.0,2.0,48,0.00,,,0.00,VWS V14.01,2013-06-27 20:36:00,
2013-06-27 16:41:00,82.3,62.1,29.91,NW,315,1.3,1.3,50,0.00,,,0.00,VWS V14.01,2013-06-27 20:41:00,
2013-06-27 16:45:00,82.5,61.7,29.91,WNW,292,0.0,0.0,50,0.00,,,0.00,VWS V14.01,2013-06-27 20:45:00,
2013-06-27 16:46:00,82.2,61.4,29.91,WNW,292,1.1,1.1,50,0.00,,,0.00,VWS V14.01,2013-06-27 20:46:00,
2013-06-27 16:51:00,82.5,60.6,29.91,NE,45,0.0,0.0,48,0.00,,,0.00,VWS V14.01,2013-06-27 20:51:00,
2013-06-27 16:56:00,82.5,60.6,29.91,NNW,338,1.3,1.3,48,0.00,,,0.00,VWS V14.01,2013-06-27 20:56:00,
2013-06-27 17:00:00,82.0,61.2,29.91,NNE,22,0.9,0.9,50,0.00,,,0.00,VWS V14.01,2013-06-27 21:00:00,
2013-06-27 17:01:00,82.3,61.0,29.91,NNE,22,0.0,0.0,48,0.00,,,0.00,VWS V14.01,2013-06-27 21:01:00,
2013-06-27 17:06:00,82.2,59.6,29.91,NNW,338,0.0,0.0,46,0.00,,,0.00,VWS V14.01,2013-06-27 21:06:00,
2013-06-27 17:11:00,82.2,60.2,29.88,WNW,292,3.6,3.6,48,0.00,,,0.00,VWS V14.01,2013-06-27 21:11:00,
2013-06-27 17:15:00,82.2,60.8,29.88,NNW,338,0.9,0.9,48,0.00,,,0.00,VWS V14.01,2013-06-27 21:15:00,
2013-06-27 17:17:00,82.0,60.1,29.88,WSW,248,0.0,0.0,48,0.00,,,0.00,VWS V14.01,2013-06-27 21:17:00,
2013-06-27 17:22:00,81.8,59.9,29.88,SSW,202,0.0,0.0,48,0.00,,,0.00,VWS V14.01,2013-06-27 21:22:00,
2013-06-27 17:27:00,82.0,60.1,29.88,NNW,338,0.0,0.0,48,0.00,,,0.00,VWS V14.01,2013-06-27 21:27:00,
2013-06-27 17:30:00,82.0,61.2,29.88,South,180,0.0,0.0,50,0.00,,,0.00,VWS V14.01,2013-06-27 21:30:00,
2013-06-27 17:32:00,82.2,61.4,29.88,SSE,158,0.0,0.0,50,0.00,,,0.00,VWS V14.01,2013-06-27 21:32:00,
2013-06-27 17:37:00,82.3,59.2,29.88,North,0,0.9,0.9,46,0.00,,,0.00,VWS V14.01,2013-06-27 21:37:00,
2013-06-27 17:42:00,82.2,60.2,29.85,North,0,0.9,0.9,48,0.00,,,0.00,VWS V14.01,2013-06-27 21:42:00,
2013-06-27 17:45:00,81.8,59.3,29.85,WSW,248,0.0,0.0,46,0.00,,,0.00,VWS V14.01,2013-06-27 21:45:00,
2013-06-27 17:47:00,81.4,60.7,29.85,East,90,0.0,0.0,50,0.00,,,0.00,VWS V14.01,2013-06-27 21:47:00,
2013-06-27 17:52:00,81.4,60.2,29.85,South,180,0.0,0.0,48,0.00,,,0.00,VWS V14.01,2013-06-27 21:52:00,
2013-06-27 17:57:00,81.2,61.1,29.88,SE,135,2.0,2.0,50,0.00,,,0.00,VWS V14.01,2013-06-27 21:57:00,
2013-06-27 18:00:00,81.1,61.0,29.88,SSE,158,0.0,0.0,50,0.00,,,0.00,VWS V14.01,2013-06-27 22:00:00,
2013-06-27 18:03:00,80.9,60.8,29.88,WNW,292,2.2,2.2,50,0.00,,,0.00,VWS V14.01,2013-06-27 22:03:00,
2013-06-27 18:08:00,81.1,61.0,29.88,NNW,338,0.0,0.0,50,0.00,,,0.00,VWS V14.01,2013-06-27 22:08:00,
2013-06-27 18:13:00,81.6,61.5,29.88,ESE,112,0.0,0.0,50,0.00,,,0.00,VWS V14.01,2013-06-27 22:13:00,
2013-06-27 18:15:00,81.6,61.5,29.88,NNW,338,0.0,0.0,50,0.00,,,0.00,VWS V14.01,2013-06-27 22:15:00,
2013-06-27 18:18:00,80.9,59.1,29.88,North,0,0.0,0.0,48,0.00,,,0.00,VWS V14.01,2013-06-27 22:18:00,
2013-06-27 18:23:00,80.7,60.6,29.88,WSW,248,0.0,0.0,50,0.00,,,0.00,VWS V14.01,2013-06-27 22:23:00,
2013-06-27 18:28:00,80.5,60.5,29.88,NNW,338,0.0,0.0,50,0.00,,,0.00,VWS V14.01,2013-06-27 22:28:00,
2013-06-27 18:30:00,80.3,60.3,29.88,NW,315,0.0,0.0,50,0.00,,,0.00,VWS V14.01,2013-06-27 22:30:00,
2013-06-27 18:33:00,79.8,60.4,29.88,NNW,338,0.0,0.0,52,0.00,,,0.00,VWS V14.01,2013-06-27 22:33:00,
2013-06-27 18:38:00,79.3,60.4,29.88,SSW,202,0.0,0.0,52,0.00,,,0.00,VWS V14.01,2013-06-27 22:38:00,
2013-06-27 18:43:00,78.6,59.8,29.88,West,270,0.0,0.0,52,0.00,,,0.00,VWS V14.01,2013-06-27 22:43:00,
2013-06-27 18:48:00,78.6,59.8,29.88,SSE,158,0.0,0.0,52,0.00,,,0.00,VWS V14.01,2013-06-27 22:48:00,
2013-06-27 18:53:00,78.6,59.8,29.88,WSW,248,0.0,0.0,52,0.00,,,0.00,VWS V14.01,2013-06-27 22:53:00,
2013-06-27 18:58:00,78.6,60.3,29.88,WSW,248,0.0,0.0,54,0.00,,,0.00,VWS V14.01,2013-06-27 22:58:00,
2013-06-27 19:00:00,78.6,60.3,29.88,WSW,248,0.0,0.0,54,0.00,,,0.00,VWS V14.01,2013-06-27 23:00:00,
2013-06-27 19:04:00,78.2,59.9,29.88,SSW,202,0.0,0.0,54,0.00,,,0.00,VWS V14.01,2013-06-27 23:04:00,
2013-06-27 19:08:00,78.0,60.3,29.88,West,270,0.0,0.0,54,0.00,,,0.00,VWS V14.01,2013-06-27 23:08:00,
2013-06-27 19:13:00,77.8,60.1,29.88,NNW,338,0.0,0.0,54,0.00,,,0.00,VWS V14.01,2013-06-27 23:13:00,
2013-06-27 19:15:00,77.8,60.1,29.88,NNW,338,0.0,0.0,54,0.00,,,0.00,VWS V14.01,2013-06-27 23:15:00,
2013-06-27 19:19:00,77.7,61.0,29.88,South,180,0.0,0.0,56,0.00,,,0.00,VWS V14.01,2013-06-27 23:19:00,
2013-06-27 19:24:00,77.1,61.5,29.88,WSW,248,0.0,0.0,58,0.00,,,0.00,VWS V14.01,2013-06-27 23:24:00,
2013-06-27 19:29:00,77.1,60.5,29.88,WNW,292,0.0,0.0,56,0.00,,,0.00,VWS V14.01,2013-06-27 23:29:00,
2013-06-27 19:30:00,77.1,60.5,29.88,WNW,292,0.0,0.0,56,0.00,,,0.00,VWS V14.01,2013-06-27 23:30:00,
2013-06-27 19:34:00,76.6,61.0,29.88,South,180,0.0,0.0,58,0.00,,,0.00,VWS V14.01,2013-06-27 23:34:00,
2013-06-27 19:39:00,76.2,60.6,29.91,SSW,202,0.0,0.0,58,0.00,,,0.00,VWS V14.01,2013-06-27 23:39:00,
2013-06-27 19:44:00,76.0,60.0,29.91,SSE,158,0.9,0.9,58,0.00,,,0.00,VWS V14.01,2013-06-27 23:44:00,
2013-06-27 19:45:00,76.0,60.0,29.91,SSE,158,1.3,1.3,58,0.00,,,0.00,VWS V14.01,2013-06-27 23:45:00,
2013-06-27 19:49:00,76.0,61.4,29.91,SE,135,0.0,0.0,60,0.00,,,0.00,VWS V14.01,2013-06-27 23:49:00,
2013-06-27 19:54:00,75.8,61.7,29.88,SE,135,0.0,0.0,62,0.00,,,0.00,VWS V14.01,2013-06-27 23:54:00,
2013-06-27 19:59:00,75.5,61.3,29.88,SE,135,0.0,0.0,62,0.00,,,0.00,VWS V14.01,2013-06-27 23:59:00,
2013-06-27 20:00:00,75.7,62.0,29.88,SE,135,0.0,0.0,62,0.00,,,0.00,VWS V14.01,2013-06-28 00:00:00,
2013-06-27 20:05:00,75.3,61.2,29.88,SE,135,0.0,0.0,62,0.00,,,0.00,VWS V14.01,2013-06-28 00:05:00,
2013-06-27 20:10:00,75.1,61.0,29.88,South,180,0.0,0.0,62,0.00,,,0.00,VWS V14.01,2013-06-28 00:10:00,
2013-06-27 20:15:00,75.1,63.2,29.88,NNW,338,0.0,0.0,66,0.04,,,0.04,VWS V14.01,2013-06-28 00:15:00,
2013-06-27 20:20:00,73.5,61.7,29.88,WNW,292,1.6,1.6,66,0.04,,,0.04,VWS V14.01,2013-06-28 00:20:00,
2013-06-27 20:25:00,71.9,58.0,29.91,SSW,202,1.1,1.1,62,0.04,,,0.04,VWS V14.01,2013-06-28 00:25:00,
2013-06-27 20:30:00,71.2,60.7,29.91,South,180,0.0,0.0,70,0.04,,,0.04,VWS V14.01,2013-06-28 00:30:00,
2013-06-27 20:35:00,70.4,61.2,29.91,SSW,202,0.0,0.0,72,0.04,,,0.04,VWS V14.01,2013-06-28 00:35:00,
2013-06-27 20:40:00,70.4,62.3,29.91,SSE,158,0.0,0.0,76,0.04,,,0.04,VWS V14.01,2013-06-28 00:40:00,
2013-06-27 20:45:00,69.9,62.9,29.91,SSE,158,0.0,0.0,78,0.04,,,0.04,VWS V14.01,2013-06-28 00:45:00,
2013-06-27 20:50:00,69.6,64.0,29.91,SE,135,0.0,0.0,82,0.04,,,0.04,VWS V14.01,2013-06-28 00:50:00,
2013-06-27 20:55:00,69.4,64.2,29.91,ESE,112,0.0,0.0,84,0.04,,,0.04,VWS V14.01,2013-06-28 00:55:00,
2013-06-27 21:01:00,69.4,64.2,29.91,South,180,0.0,0.0,84,0.04,,,0.04,VWS V14.01,2013-06-28 01:01:00,
2013-06-27 21:06:00,69.0,64.5,29.91,SE,135,1.6,1.6,86,0.04,,,0.04,VWS V14.01,2013-06-28 01:06:00,
2013-06-27 21:11:00,68.8,64.3,29.91,SSE,158,0.0,0.0,86,0.04,,,0.04,VWS V14.01,2013-06-28 01:11:00,
2013-06-27 21:16:00,68.7,64.5,29.91,SSE,158,0.0,0.0,86,0.04,,,0.04,VWS V14.01,2013-06-28 01:16:00,
2013-06-27 21:21:00,68.5,64.6,29.91,South,180,0.0,0.0,88,0.04,,,0.04,VWS V14.01,2013-06-28 01:21:00,
2013-06-27 21:26:00,68.3,64.4,29.91,ESE,112,0.0,0.0,88,0.04,,,0.04,VWS V14.01,2013-06-28 01:26:00,
2013-06-27 21:30:00,68.3,64.4,29.91,ESE,112,0.0,0.0,88,0.04,,,0.04,VWS V14.01,2013-06-28 01:30:00,
2013-06-27 21:31:00,68.3,64.8,29.91,ESE,112,0.0,0.0,88,0.00,,,0.04,VWS V14.01,2013-06-28 01:31:00,
2013-06-27 21:36:00,67.9,64.4,29.91,SSE,158,0.0,0.0,88,0.00,,,0.04,VWS V14.01,2013-06-28 01:36:00,
2013-06-27 21:41:00,67.8,64.9,29.91,SSE,158,0.0,0.0,90,0.00,,,0.04,VWS V14.01,2013-06-28 01:41:00,
2013-06-27 21:45:00,67.8,64.9,29.91,SSE,158,0.0,0.0,90,0.00,,,0.04,VWS V14.01,2013-06-28 01:45:00,
2013-06-27 21:46:00,67.6,64.7,29.91,SSE,158,0.0,0.0,90,0.00,,,0.04,VWS V14.01,2013-06-28 01:46:00,
2013-06-27 21:51:00,67.4,64.5,29.91,SSE,158,0.0,0.0,90,0.00,,,0.04,VWS V14.01,2013-06-28 01:51:00,
2013-06-27 21:56:00,67.2,64.7,29.91,SSE,158,0.0,0.0,92,0.00,,,0.04,VWS V14.01,2013-06-28 01:56:00,
2013-06-27 22:00:00,67.0,64.8,29.91,SSE,158,0.0,0.0,92,0.00,,,0.04,VWS V14.01,2013-06-28 02:00:00,
2013-06-27 22:01:00,67.0,64.8,29.91,SW,225,0.0,0.0,92,0.00,,,0.04,VWS V14.01,2013-06-28 02:01:00,
2013-06-27 22:07:00,67.0,66.0,29.91,SSE,158,0.0,0.0,96,0.00,,,0.04,VWS V14.01,2013-06-28 02:07:00,
2013-06-27 22:12:00,66.8,66.4,29.91,SSW,202,0.0,0.0,98,0.00,,,0.04,VWS V14.01,2013-06-28 02:12:00,
2013-06-27 22:15:00,66.8,66.4,29.91,SSW,202,0.0,0.0,98,0.00,,,0.04,VWS V14.01,2013-06-28 02:15:00,
2013-06-27 22:17:00,66.7,66.2,29.91,SE,135,0.0,0.0,98,0.00,,,0.04,VWS V14.01,2013-06-28 02:17:00,
2013-06-27 22:22:00,66.7,66.2,29.91,SSE,158,0.0,0.0,98,0.00,,,0.04,VWS V14.01,2013-06-28 02:22:00,
2013-06-27 22:27:00,66.5,66.3,29.91,WSW,248,0.0,0.0,100,0.00,,,0.04,VWS V14.01,2013-06-28 02:27:00,
2013-06-27 22:30:00,66.5,66.3,29.91,WSW,248,0.0,0.0,100,0.00,,,0.04,VWS V14.01,2013-06-28 02:30:00,
2013-06-27 22:32:00,66.7,66.7,29.91,WSW,248,0.0,0.0,100,0.00,,,0.04,VWS V14.01,2013-06-28 02:32:00,
2013-06-27 22:37:00,66.5,66.5,29.91,SE,135,0.0,0.0,100,0.00,,,0.04,VWS V14.01,2013-06-28 02:37:00,
2013-06-27 22:42:00,66.5,66.5,29.91,SE,135,0.0,0.0,100,0.00,,,0.04,VWS V14.01,2013-06-28 02:42:00,
2013-06-27 22:45:00,66.5,66.5,29.91,SE,135,0.0,0.0,100,0.00,,,0.04,VWS V14.01,2013-06-28 02:45:00,
2013-06-27 22:47:00,66.3,66.3,29.91,SE,135,0.0,0.0,100,0.00,,,0.04,VWS V14.01,2013-06-28 02:47:00,
2013-06-27 22:52:00,66.3,66.3,29.91,SE,135,0.0,0.0,100,0.00,,,0.04,VWS V14.01,2013-06-28 02:52:00,
2013-06-27 22:57:00,66.3,66.3,29.91,SE,135,0.0,0.0,100,0.00,,,0.04,VWS V14.01,2013-06-28 02:57:00,
2013-06-27 23:00:00,66.3,66.3,29.91,SE,135,0.0,0.0,100,0.00,,,0.04,VWS V14.01,2013-06-28 03:00:00,
2013-06-27 23:02:00,66.1,66.1,29.91,SE,135,0.0,0.0,100,0.00,,,0.04,VWS V14.01,2013-06-28 03:02:00,
2013-06-27 23:07:00,65.9,66.0,29.91,SE,135,0.0,0.0,100,0.00,,,0.04,VWS V14.01,2013-06-28 03:07:00,
2013-06-27 23:12:00,65.8,65.8,29.91,SE,135,0.0,0.0,100,0.00,,,0.04,VWS V14.01,2013-06-28 03:12:00,
2013-06-27 23:15:00,65.9,66.0,29.91,SE,135,0.0,0.0,100,0.00,,,0.04,VWS V14.01,2013-06-28 03:15:00,
2013-06-27 23:17:00,65.8,65.8,29.91,SE,135,0.0,0.0,100,0.00,,,0.04,VWS V14.01,2013-06-28 03:17:00,
2013-06-27 23:22:00,65.6,65.6,29.91,SE,135,0.0,0.0,100,0.00,,,0.04,VWS V14.01,2013-06-28 03:22:00,
2013-06-27 23:27:00,65.6,65.6,29.94,SE,135,0.0,0.0,100,0.00,,,0.04,VWS V14.01,2013-06-28 03:27:00,
2013-06-27 23:30:00,65.6,65.6,29.94,SE,135,0.0,0.0,100,0.00,,,0.04,VWS V14.01,2013-06-28 03:30:00,
2013-06-27 23:32:00,65.6,65.6,29.94,SE,135,0.0,0.0,100,0.00,,,0.04,VWS V14.01,2013-06-28 03:32:00,
2013-06-27 23:38:00,65.8,65.8,29.94,SE,135,0.0,0.0,100,0.00,,,0.04,VWS V14.01,2013-06-28 03:38:00,
2013-06-27 23:43:00,65.8,65.8,29.94,SE,135,0.0,0.0,100,0.00,,,0.04,VWS V14.01,2013-06-28 03:43:00,
2013-06-27 23:45:00,65.8,65.8,29.94,SE,135,0.0,0.0,100,0.00,,,0.04,VWS V14.01,2013-06-28 03:45:00,
2013-06-27 23:48:00,65.4,65.4,29.94,SE,135,0.0,0.0,100,0.00,,,0.04,VWS V14.01,2013-06-28 03:48:00,
2013-06-27 23:53:00,65.2,65.2,29.91,SE,135,0.0,0.0,100,0.00,,,0.04,VWS V14.01,2013-06-28 03:53:00,
2013-06-27 23:58:00,65.8,65.8,29.91,WSW,248,0.0,0.0,100,0.00,,,0.04,VWS V14.01,2013-06-28 03:58:00,